createdAt,value
2019-05-29T00:00:15.400Z,2.70
2019-05-29T00:02:44.280Z,2.77
2019-05-29T00:05:14.745Z,2.43
2019-05-29T00:07:44.242Z,2.20
2019-05-29T00:10:14.429Z,2.63
2019-05-29T00:12:44.746Z,2.47
2019-05-29T00:15:15.066Z,2.37
2019-05-29T00:17:43.868Z,2.23
2019-05-29T00:20:14.624Z,2.27
2019-05-29T00:22:43.596Z,2.07
2019-05-29T00:25:14.741Z,2.05
2019-05-29T00:27:43.631Z,1.77
2019-05-29T00:30:13.493Z,1.73
2019-05-29T00:32:42.442Z,1.90
2019-05-29T00:35:12.388Z,1.57
2019-05-29T00:37:41.347Z,2.20
2019-05-29T00:40:11.102Z,1.43
2019-05-29T00:42:39.950Z,1.67
2019-05-29T00:45:11.411Z,1.65
2019-05-29T00:47:40.631Z,1.43
2019-05-29T00:50:10.637Z,1.55
2019-05-29T00:52:39.610Z,1.67
2019-05-29T00:55:08.929Z,2.60
2019-05-29T00:57:37.803Z,1.40
2019-05-29T01:00:09.063Z,1.50
2019-05-29T01:02:38.039Z,1.50
2019-05-29T01:05:08.225Z,1.40
2019-05-29T01:07:38.692Z,1.70
2019-05-29T01:10:08.465Z,1.77
2019-05-29T01:12:37.401Z,1.70
2019-05-29T01:15:07.173Z,1.67
2019-05-29T01:17:35.996Z,2.30
2019-05-29T01:20:06.576Z,2.97
2019-05-29T01:22:35.523Z,2.50
2019-05-29T01:25:05.333Z,2.17
2019-05-29T01:27:34.120Z,2.03
2019-05-29T01:30:03.088Z,2.17
2019-05-29T01:32:32.007Z,2.20
2019-05-29T01:35:00.794Z,2.23
2019-05-29T01:37:29.585Z,1.80
2019-05-29T01:39:58.472Z,2.10
2019-05-29T01:42:27.747Z,2.02
2019-05-29T01:45:07.092Z,1.90
2019-05-29T01:47:28.015Z,1.60
2019-05-29T01:49:58.543Z,0.90
2019-05-29T01:52:28.869Z,1.10
2019-05-29T01:54:57.659Z,1.20
2019-05-29T01:57:26.444Z,1.07
2019-05-29T01:59:55.236Z,1.03
2019-05-29T02:02:24.032Z,1.20
2019-05-29T02:04:52.813Z,2.50
2019-05-29T02:07:22.438Z,2.30
2019-05-29T02:09:51.415Z,1.50
2019-05-29T02:12:20.792Z,1.50
2019-05-29T02:14:49.713Z,0.90
2019-05-29T02:17:19.610Z,1.10
2019-05-29T02:19:48.719Z,1.10
2019-05-29T02:22:17.508Z,1.20
2019-05-29T02:24:46.406Z,1.07
2019-05-29T02:27:15.293Z,1.25
2019-05-29T02:29:44.181Z,1.47
2019-05-29T02:32:12.971Z,1.00
2019-05-29T02:34:41.863Z,1.20
2019-05-29T02:37:11.781Z,1.40
2019-05-29T02:39:40.554Z,1.00
2019-05-29T02:42:10.587Z,1.60
2019-05-29T02:44:39.476Z,1.60
2019-05-29T02:47:08.988Z,1.10
2019-05-29T02:49:37.872Z,1.27
2019-05-29T02:52:06.667Z,1.10
2019-05-29T02:54:35.553Z,0.80
2019-05-29T02:57:04.549Z,0.90
2019-05-29T02:59:33.440Z,1.03
2019-05-29T03:02:02.225Z,1.00
2019-05-29T03:04:32.853Z,0.87
2019-05-29T03:07:01.932Z,0.77
2019-05-29T03:09:30.936Z,0.90
2019-05-29T03:12:00.604Z,1.03
2019-05-29T03:14:31.617Z,0.70
2019-05-29T03:17:00.388Z,1.20
2019-05-29T03:19:30.322Z,1.07
2019-05-29T03:21:59.703Z,1.37
2019-05-29T03:24:28.803Z,1.77
2019-05-29T03:26:59.227Z,1.50
2019-05-29T03:29:29.936Z,1.70
2019-05-29T03:31:59.060Z,1.77
2019-05-29T03:34:32.105Z,1.57
2019-05-29T03:36:58.584Z,1.90
2019-05-29T03:39:30.344Z,2.00
2019-05-29T03:41:59.333Z,1.77
2019-05-29T03:44:28.807Z,1.60
2019-05-29T03:46:58.139Z,1.32
2019-05-29T03:49:29.062Z,1.47
2019-05-29T03:51:57.562Z,1.60
2019-05-29T03:54:27.082Z,1.55
2019-05-29T03:56:56.985Z,1.60
2019-05-29T03:59:26.712Z,1.50
2019-05-29T04:01:56.101Z,1.20
2019-05-29T04:04:24.881Z,1.43
2019-05-29T04:06:53.670Z,1.17
2019-05-29T04:09:23.998Z,1.27
2019-05-29T04:11:52.783Z,1.80
2019-05-29T04:14:21.680Z,1.30
2019-05-29T04:16:59.686Z,1.43
2019-05-29T04:19:24.474Z,1.60
2019-05-29T04:21:56.194Z,1.73
2019-05-29T04:24:29.408Z,1.45
2019-05-29T04:27:00.523Z,1.60
2019-05-29T04:29:30.067Z,1.30
2019-05-29T04:31:58.987Z,1.23
2019-05-29T04:34:30.119Z,1.50
2019-05-29T04:37:00.033Z,1.60
2019-05-29T04:39:30.523Z,1.60
2019-05-29T04:41:59.561Z,1.90
2019-05-29T04:44:28.824Z,1.80
2019-05-29T04:47:10.270Z,1.60
2019-05-29T04:49:29.313Z,1.57
2019-05-29T04:51:58.707Z,1.77
2019-05-29T04:54:29.162Z,1.63
2019-05-29T04:56:58.221Z,1.60
2019-05-29T04:59:27.111Z,1.50
2019-05-29T05:01:55.902Z,1.50
2019-05-29T05:04:24.792Z,1.70
2019-05-29T05:06:53.581Z,2.00
2019-05-29T05:09:23.904Z,1.07
2019-05-29T05:11:53.205Z,1.17
2019-05-29T05:14:33.597Z,1.30
2019-05-29T05:17:02.576Z,1.33
2019-05-29T05:19:31.818Z,1.90
2019-05-29T05:22:00.706Z,1.80
2019-05-29T05:24:30.160Z,1.40
2019-05-29T05:26:59.148Z,1.27
2019-05-29T05:29:27.938Z,1.33
2019-05-29T05:31:56.727Z,1.33
2019-05-29T05:34:25.616Z,1.20
2019-05-29T05:36:54.513Z,1.07
2019-05-29T05:39:23.909Z,1.70
2019-05-29T05:41:52.904Z,1.57
2019-05-29T05:44:21.798Z,1.97
2019-05-29T05:46:51.387Z,2.17
2019-05-29T05:49:20.364Z,1.80
2019-05-29T05:51:49.386Z,2.37
2019-05-29T05:54:18.283Z,1.80
2019-05-29T05:56:47.074Z,2.10
2019-05-29T05:59:15.963Z,2.43
2019-05-29T06:01:44.754Z,2.33
2019-05-29T06:04:13.643Z,2.00
2019-05-29T06:06:42.522Z,2.10
2019-05-29T06:09:13.371Z,1.77
2019-05-29T06:11:42.564Z,1.63
2019-05-29T06:14:12.281Z,2.42
2019-05-29T06:16:41.176Z,2.00
2019-05-29T06:19:10.782Z,1.70
2019-05-29T06:21:40.801Z,2.33
2019-05-29T06:24:11.943Z,1.92
2019-05-29T06:26:41.125Z,1.70
2019-05-29T06:29:10.962Z,1.90
2019-05-29T06:31:39.846Z,1.80
2019-05-29T06:34:09.326Z,1.73
2019-05-29T06:36:38.179Z,1.90
2019-05-29T06:39:09.398Z,1.30
2019-05-29T06:41:38.282Z,1.13
2019-05-29T06:44:08.307Z,1.77
2019-05-29T06:46:38.352Z,1.30
2019-05-29T06:49:07.819Z,1.07
2019-05-29T06:51:37.107Z,1.33
2019-05-29T06:54:06.330Z,1.77
2019-05-29T06:56:35.546Z,1.40
2019-05-29T06:59:05.546Z,1.30
2019-05-29T07:01:35.201Z,1.27
2019-05-29T07:04:11.993Z,1.20
2019-05-29T07:06:35.123Z,1.60
2019-05-29T07:09:05.616Z,1.37
2019-05-29T07:11:34.597Z,1.33
2019-05-29T07:14:03.696Z,1.33
2019-05-29T07:16:43.902Z,1.27
2019-05-29T07:19:25.692Z,1.27
2019-05-29T07:21:36.657Z,1.10
2019-05-29T07:24:06.491Z,1.20
2019-05-29T07:26:35.317Z,1.43
2019-05-29T07:29:08.278Z,1.27
2019-05-29T07:31:34.840Z,1.30
2019-05-29T07:34:03.734Z,1.00
2019-05-29T07:36:32.624Z,1.40
2019-05-29T07:39:03.547Z,1.30
2019-05-29T07:41:33.681Z,1.57
2019-05-29T07:44:02.574Z,1.40
2019-05-29T07:46:31.772Z,1.10
2019-05-29T07:49:00.692Z,1.40
2019-05-29T07:51:29.556Z,1.17
2019-05-29T07:53:59.577Z,1.23
2019-05-29T07:56:28.463Z,1.00
2019-05-29T07:59:02.900Z,1.10
2019-05-29T08:01:30.470Z,1.50
2019-05-29T08:03:58.836Z,1.10
2019-05-29T08:06:27.716Z,1.13
2019-05-29T08:08:58.179Z,1.20
2019-05-29T08:11:27.138Z,1.30
2019-05-29T08:13:57.461Z,1.10
2019-05-29T08:16:29.698Z,1.17
2019-05-29T08:18:58.525Z,1.37
2019-05-29T08:21:27.413Z,1.10
2019-05-29T08:23:56.302Z,1.00
2019-05-29T08:26:25.161Z,1.10
2019-05-29T08:28:54.089Z,1.53
2019-05-29T08:31:25.982Z,1.60
2019-05-29T08:33:56.378Z,1.10
2019-05-29T08:36:25.179Z,1.33
2019-05-29T08:38:54.298Z,1.10
2019-05-29T08:41:23.251Z,1.32
2019-05-29T08:43:52.801Z,1.40
2019-05-29T08:46:21.862Z,1.00
2019-05-29T08:48:52.097Z,1.07
2019-05-29T08:51:21.483Z,1.00
2019-05-29T08:53:52.133Z,1.20
2019-05-29T08:56:21.010Z,1.10
2019-05-29T08:58:50.686Z,0.87
2019-05-29T09:01:19.883Z,0.78
2019-05-29T09:03:48.950Z,0.90
2019-05-29T09:06:17.900Z,0.87
2019-05-29T09:08:48.510Z,1.03
2019-05-29T09:11:17.424Z,0.90
2019-05-29T09:13:46.315Z,1.10
2019-05-29T09:16:15.206Z,0.70
2019-05-29T09:18:44.098Z,1.00
2019-05-29T09:21:14.449Z,1.30
2019-05-29T09:23:44.645Z,1.10
2019-05-29T09:26:19.216Z,1.10
2019-05-29T09:28:44.168Z,1.23
2019-05-29T09:31:14.976Z,1.00
2019-05-29T09:33:43.691Z,1.00
2019-05-29T09:36:12.480Z,0.83
2019-05-29T09:38:41.438Z,1.10
2019-05-29T09:41:11.390Z,1.50
2019-05-29T09:43:57.334Z,1.37
2019-05-29T09:46:11.982Z,1.50
2019-05-29T09:48:49.705Z,1.20
2019-05-29T09:51:21.321Z,1.10
2019-05-29T09:53:43.120Z,1.00
2019-05-29T09:56:12.937Z,1.20
2019-05-29T09:58:41.833Z,0.87
2019-05-29T10:01:22.869Z,1.22
2019-05-29T10:03:41.969Z,0.97
2019-05-29T10:06:12.592Z,0.90
2019-05-29T10:08:41.376Z,1.22
2019-05-29T10:11:11.566Z,0.93
2019-05-29T10:13:40.494Z,1.00
2019-05-29T10:16:10.104Z,1.20
2019-05-29T10:18:38.992Z,1.00
2019-05-29T10:21:08.883Z,1.02
2019-05-29T10:23:37.818Z,0.90
2019-05-29T10:26:06.704Z,1.30
2019-05-29T10:28:50.376Z,1.00
2019-05-29T10:31:07.865Z,0.70
2019-05-29T10:33:36.745Z,0.80
2019-05-29T10:36:06.045Z,0.98
2019-05-29T10:38:34.944Z,0.70
2019-05-29T10:41:07.109Z,0.50
2019-05-29T10:43:35.999Z,0.87
2019-05-29T10:46:05.009Z,0.90
2019-05-29T10:48:34.015Z,0.60
2019-05-29T10:51:02.981Z,0.40
2019-05-29T10:53:31.869Z,1.10
2019-05-29T10:56:00.657Z,0.70
2019-05-29T10:58:45.815Z,1.23
2019-05-29T11:01:01.937Z,0.70
2019-05-29T11:03:31.535Z,0.78
2019-05-29T11:06:00.321Z,0.90
2019-05-29T11:08:29.212Z,0.90
2019-05-29T11:10:59.639Z,0.88
2019-05-29T11:13:28.427Z,0.70
2019-05-29T11:15:57.321Z,1.00
2019-05-29T11:18:26.206Z,0.70
2019-05-29T11:20:55.454Z,0.70
2019-05-29T11:23:24.502Z,1.10
2019-05-29T11:25:54.019Z,0.90
2019-05-29T11:28:25.766Z,0.90
2019-05-29T11:30:55.616Z,0.90
2019-05-29T11:33:28.054Z,0.80
2019-05-29T11:36:09.449Z,0.80
2019-05-29T11:38:28.093Z,0.60
2019-05-29T11:41:20.221Z,0.70
2019-05-29T11:43:28.355Z,0.77
2019-05-29T11:45:59.610Z,0.80
2019-05-29T11:48:28.595Z,0.80
2019-05-29T11:50:58.285Z,0.88
2019-05-29T11:53:27.400Z,0.60
2019-05-29T11:55:57.663Z,0.80
2019-05-29T11:58:31.505Z,1.00
2019-05-29T12:00:59.274Z,1.05
2019-05-29T12:03:28.682Z,0.90
2019-05-29T12:05:57.672Z,1.10
2019-05-29T12:08:26.722Z,1.20
2019-05-29T12:10:57.155Z,0.80
2019-05-29T12:13:28.148Z,0.60
2019-05-29T12:15:57.733Z,0.50
2019-05-29T12:18:26.734Z,0.90
2019-05-29T12:20:56.166Z,0.60
2019-05-29T12:23:27.314Z,0.60
2019-05-29T12:26:17.700Z,0.90
2019-05-29T12:28:26.813Z,0.80
2019-05-29T12:30:56.900Z,0.80
2019-05-29T12:33:25.919Z,1.57
2019-05-29T12:35:54.945Z,0.93
2019-05-29T12:38:23.907Z,0.90
2019-05-29T12:40:53.447Z,1.05
2019-05-29T12:43:26.977Z,1.17
2019-05-29T12:45:53.503Z,1.20
2019-05-29T12:48:22.443Z,0.98
2019-05-29T12:50:54.056Z,1.10
2019-05-29T12:53:30.422Z,1.00
2019-05-29T12:55:56.151Z,0.93
2019-05-29T12:58:25.074Z,0.90
2019-05-29T13:00:54.535Z,1.00
2019-05-29T13:03:23.988Z,1.20
2019-05-29T13:05:54.031Z,0.93
2019-05-29T13:08:23.099Z,1.03
2019-05-29T13:10:52.077Z,0.75
2019-05-29T13:13:20.982Z,0.90
2019-05-29T13:15:49.871Z,0.78
2019-05-29T13:18:18.765Z,0.60
2019-05-29T13:20:47.662Z,0.60
2019-05-29T13:23:16.507Z,0.67
2019-05-29T13:25:46.976Z,0.70
2019-05-29T13:28:15.867Z,0.73
2019-05-29T13:30:44.789Z,0.65
2019-05-29T13:33:16.307Z,0.80
2019-05-29T13:35:45.304Z,1.02
2019-05-29T13:38:14.196Z,0.80
2019-05-29T13:40:43.793Z,0.53
2019-05-29T13:43:15.376Z,0.90
2019-05-29T13:45:43.329Z,0.60
2019-05-29T13:48:12.542Z,0.55
2019-05-29T13:50:43.777Z,1.05
2019-05-29T13:53:12.666Z,0.88
2019-05-29T13:55:41.554Z,0.70
2019-05-29T13:58:11.366Z,0.70
2019-05-29T14:00:40.360Z,0.80
2019-05-29T14:03:09.422Z,0.70
2019-05-29T14:05:38.350Z,0.62
2019-05-29T14:08:08.980Z,0.70
2019-05-29T14:10:38.181Z,0.80
2019-05-29T14:13:07.674Z,0.64
2019-05-29T14:15:37.123Z,0.50
2019-05-29T14:18:07.172Z,0.72
2019-05-29T14:20:36.102Z,0.47
2019-05-29T14:23:05.391Z,0.30
2019-05-29T14:25:35.622Z,0.50
2019-05-29T14:28:06.798Z,0.53
2019-05-29T14:30:37.605Z,0.50
2019-05-29T14:33:06.887Z,0.50
2019-05-29T14:35:37.232Z,0.70
2019-05-29T14:38:09.910Z,0.60
2019-05-29T14:40:36.963Z,0.70
2019-05-29T14:43:08.603Z,0.50
2019-05-29T14:45:36.380Z,0.40
2019-05-29T14:48:06.217Z,0.50
2019-05-29T14:50:36.640Z,0.90
2019-05-29T14:53:07.280Z,0.55
2019-05-29T14:55:36.246Z,0.60
2019-05-29T14:58:05.772Z,0.80
2019-05-29T15:00:34.955Z,0.80
2019-05-29T15:03:05.196Z,0.75
2019-05-29T15:05:34.376Z,0.80
2019-05-29T15:08:03.998Z,0.53
2019-05-29T15:10:33.818Z,0.75
2019-05-29T15:13:04.238Z,0.70
2019-05-29T15:15:33.320Z,0.40
2019-05-29T15:18:02.311Z,0.70
2019-05-29T15:20:31.203Z,0.70
2019-05-29T15:23:00.091Z,0.90
2019-05-29T15:25:28.881Z,0.73
2019-05-29T15:27:57.772Z,0.80
2019-05-29T15:30:26.868Z,0.62
2019-05-29T15:32:55.897Z,0.60
2019-05-29T15:35:24.756Z,0.60
2019-05-29T15:37:53.648Z,0.80
2019-05-29T15:40:22.640Z,0.60
2019-05-29T15:42:51.636Z,0.70
2019-05-29T15:45:22.624Z,0.60
2019-05-29T15:47:53.113Z,0.60
2019-05-29T15:50:22.095Z,0.70
2019-05-29T15:52:50.985Z,0.70
2019-05-29T15:55:29.633Z,0.70
2019-05-29T15:57:53.288Z,0.60
2019-05-29T16:00:23.837Z,0.70
2019-05-29T16:02:54.002Z,0.57
2019-05-29T16:05:23.229Z,0.68
2019-05-29T16:07:52.119Z,1.20
2019-05-29T16:10:21.857Z,0.80
2019-05-29T16:12:51.469Z,0.80
2019-05-29T16:15:20.795Z,0.90
2019-05-29T16:17:49.591Z,0.65
2019-05-29T16:20:19.747Z,0.87
2019-05-29T16:22:48.741Z,1.00
2019-05-29T16:25:18.987Z,0.53
2019-05-29T16:27:49.607Z,0.80
2019-05-29T16:30:20.021Z,0.50
2019-05-29T16:32:50.296Z,0.60
2019-05-29T16:35:19.645Z,1.22
2019-05-29T16:37:48.643Z,1.32
2019-05-29T16:40:20.122Z,0.83
2019-05-29T16:42:48.985Z,0.60
2019-05-29T16:45:18.658Z,0.80
2019-05-29T16:47:47.591Z,1.52
2019-05-29T16:50:19.411Z,1.43
2019-05-29T16:52:48.751Z,0.80
2019-05-29T16:55:19.196Z,1.27
2019-05-29T16:57:48.274Z,0.93
2019-05-29T17:00:19.545Z,0.87
2019-05-29T17:02:48.619Z,0.85
2019-05-29T17:05:20.311Z,0.77
2019-05-29T17:07:49.161Z,0.90
2019-05-29T17:10:18.433Z,0.80
2019-05-29T17:12:47.255Z,6.53
2019-05-29T17:15:17.214Z,1.37
2019-05-29T17:17:46.677Z,1.05
2019-05-29T17:20:17.096Z,1.00
2019-05-29T17:22:45.992Z,1.20
2019-05-29T17:25:14.985Z,1.20
2019-05-29T17:27:43.875Z,0.93
2019-05-29T17:30:14.588Z,1.07
2019-05-29T17:32:43.502Z,1.20
2019-05-29T17:35:12.694Z,1.00
2019-05-29T17:37:42.976Z,1.75
2019-05-29T17:40:12.934Z,0.80
2019-05-29T17:42:41.837Z,0.90
2019-05-29T17:45:12.608Z,0.84
2019-05-29T17:47:42.173Z,1.90
2019-05-29T17:50:12.510Z,1.06
2019-05-29T17:52:44.360Z,1.10
2019-05-29T17:55:13.469Z,1.37
2019-05-29T17:57:42.454Z,2.22
2019-05-29T18:00:16.099Z,1.26
2019-05-29T18:02:51.834Z,0.95
2019-05-29T18:05:18.302Z,1.60
2019-05-29T18:07:47.333Z,0.80
2019-05-29T18:10:19.378Z,0.73
2019-05-29T18:12:48.187Z,0.82
2019-05-29T18:15:19.603Z,0.90
2019-05-29T18:17:48.743Z,0.68
2019-05-29T18:20:18.046Z,0.60
2019-05-29T18:22:47.040Z,0.90
2019-05-29T18:25:17.908Z,0.73
2019-05-29T18:27:46.962Z,1.00
2019-05-29T18:30:16.268Z,1.07
2019-05-29T18:32:45.172Z,0.95
2019-05-29T18:35:15.786Z,0.90
2019-05-29T18:37:44.676Z,0.95
2019-05-29T18:40:14.397Z,1.02
2019-05-29T18:42:44.843Z,0.93
2019-05-29T18:45:21.067Z,0.78
2019-05-29T18:47:44.665Z,0.90
2019-05-29T18:50:13.742Z,1.00
2019-05-29T18:52:42.634Z,1.10
2019-05-29T18:55:12.151Z,1.00
2019-05-29T18:57:41.029Z,0.90
2019-05-29T19:00:11.767Z,1.10
2019-05-29T19:02:40.650Z,1.65
2019-05-29T19:05:10.366Z,1.20
2019-05-29T19:07:39.254Z,1.10
2019-05-29T19:10:08.644Z,1.05
2019-05-29T19:12:37.550Z,1.30
2019-05-29T19:15:08.093Z,1.07
2019-05-29T19:17:36.879Z,1.02
2019-05-29T19:20:07.382Z,1.05
2019-05-29T19:22:36.494Z,0.80
2019-05-29T19:25:06.688Z,1.02
2019-05-29T19:27:41.314Z,1.10
2019-05-29T19:30:12.674Z,1.20
2019-05-29T19:32:41.797Z,1.10
2019-05-29T19:35:11.714Z,1.20
2019-05-29T19:37:40.635Z,1.00
2019-05-29T19:40:10.115Z,1.00
2019-05-29T19:42:39.093Z,0.90
2019-05-29T19:45:09.831Z,0.93
2019-05-29T19:47:38.842Z,1.30
2019-05-29T19:50:11.275Z,1.17
2019-05-29T19:52:40.717Z,1.03
2019-05-29T19:55:10.336Z,0.85
2019-05-29T19:57:54.628Z,1.00
2019-05-29T20:00:11.320Z,1.00
2019-05-29T20:02:43.059Z,1.00
2019-05-29T20:05:12.837Z,1.27
2019-05-29T20:07:41.730Z,0.87
2019-05-29T20:10:11.949Z,1.02
2019-05-29T20:12:40.943Z,1.10
2019-05-29T20:15:10.450Z,0.97
2019-05-29T20:17:39.477Z,1.20
2019-05-29T20:20:09.993Z,1.20
2019-05-29T20:22:39.155Z,1.20
2019-05-29T20:25:13.229Z,1.00
2019-05-29T20:27:39.922Z,1.10
2019-05-29T20:30:15.673Z,1.15
2019-05-29T20:32:44.738Z,0.90
2019-05-29T20:35:13.866Z,1.00
2019-05-29T20:37:42.755Z,1.27
2019-05-29T20:40:13.168Z,1.15
2019-05-29T20:42:42.515Z,0.93
2019-05-29T20:45:12.983Z,1.20
2019-05-29T20:47:42.139Z,1.17
2019-05-29T20:50:12.659Z,1.05
2019-05-29T20:52:41.634Z,1.07
2019-05-29T20:55:12.266Z,1.00
2019-05-29T20:57:42.180Z,1.20
2019-05-29T21:00:14.969Z,1.30
2019-05-29T21:02:43.855Z,1.10
2019-05-29T21:05:14.305Z,0.93
2019-05-29T21:07:43.179Z,1.23
2019-05-29T21:10:14.798Z,1.20
2019-05-29T21:12:47.093Z,1.20
2019-05-29T21:15:14.455Z,1.10
2019-05-29T21:17:44.780Z,1.10
2019-05-29T21:20:13.988Z,1.20
2019-05-29T21:22:43.063Z,1.27
2019-05-29T21:25:18.074Z,1.10
2019-05-29T21:27:47.128Z,1.43
2019-05-29T21:30:14.663Z,1.03
2019-05-29T21:32:44.000Z,1.10
2019-05-29T21:35:13.470Z,0.90
2019-05-29T21:37:42.559Z,1.30
2019-05-29T21:40:12.131Z,1.30
2019-05-29T21:42:41.170Z,1.30
2019-05-29T21:45:11.288Z,1.40
2019-05-29T21:47:40.989Z,1.60
2019-05-29T21:50:11.024Z,1.37
2019-05-29T21:52:39.911Z,1.60
2019-05-29T21:55:10.335Z,1.40
2019-05-29T21:57:42.279Z,1.60
2019-05-29T22:00:12.613Z,1.50
2019-05-29T22:02:42.273Z,1.70
2019-05-29T22:05:12.045Z,1.70
2019-05-29T22:07:40.934Z,1.60
2019-05-29T22:10:11.768Z,1.50
2019-05-29T22:12:40.559Z,1.80
2019-05-29T22:15:13.364Z,1.92
2019-05-29T22:17:42.337Z,1.63
2019-05-29T22:20:11.945Z,1.55
2019-05-29T22:22:40.849Z,1.50
2019-05-29T22:25:10.184Z,1.47
2019-05-29T22:27:39.029Z,1.47
2019-05-29T22:30:08.535Z,1.83
2019-05-29T22:32:37.527Z,1.50
2019-05-29T22:35:09.832Z,1.50
2019-05-29T22:37:38.811Z,1.67
2019-05-29T22:40:08.401Z,1.97
2019-05-29T22:42:37.288Z,1.30
2019-05-29T22:45:07.687Z,1.40
2019-05-29T22:47:36.508Z,1.60
2019-05-29T22:50:08.151Z,1.60
2019-05-29T22:52:37.054Z,1.63
2019-05-29T22:55:06.975Z,1.67
2019-05-29T22:57:35.858Z,1.37
2019-05-29T23:00:07.106Z,1.30
2019-05-29T23:02:36.002Z,1.47
2019-05-29T23:05:06.838Z,1.20
2019-05-29T23:07:35.725Z,1.17
2019-05-29T23:10:07.454Z,1.60
2019-05-29T23:12:36.409Z,1.57
2019-05-29T23:15:07.503Z,1.50
2019-05-29T23:17:36.411Z,1.30
2019-05-29T23:20:10.097Z,1.53
2019-05-29T23:22:39.174Z,1.53
2019-05-29T23:25:08.895Z,1.40
2019-05-29T23:27:37.708Z,2.00
2019-05-29T23:30:08.426Z,1.73
2019-05-29T23:32:37.336Z,1.73
2019-05-29T23:35:07.502Z,1.80
2019-05-29T23:37:36.453Z,1.80
2019-05-29T23:40:08.107Z,1.53
2019-05-29T23:42:37.098Z,1.70
2019-05-29T23:45:07.179Z,1.83
2019-05-29T23:47:36.026Z,2.00
2019-05-29T23:50:07.431Z,1.70
2019-05-29T23:52:36.351Z,2.07
2019-05-29T23:55:06.831Z,2.30
2019-05-29T23:57:35.770Z,1.83
